Portada
METAR-TAF:

METAR-TAF

Aeroports :

Ilam, Iran

latitud: 33-35-09N, longitud: 046-24-20E, altitud: 1334 m

Observació

L'informe es va fer fa 28 minuts, a les 21:00 UTC
Vent 4 kt del Est/Nord-Est
Temperatura 19°C
Humitat 32%
Pressió 1017 hPa
Visibilitat 10 km o més
sense núvols per sota de 1500 mi sense presència de cumulonimbus.

METAR: OICI 282100Z 07004KT CAVOK 19/02 Q1017 A3004

Hora: 00:58 (21:28 UTC)

Pronòstic

L'informe es va fer fa 3 hores i 58 minuts, a les 17:30 UTC
Pronòstic vàlid del 28 a les 18 UTC al 29 a les 24 UTC
Vent 10 kt del Est
Visibilitat: 8000 m
Escasses núvols a una alçada de 4000 ft

TAF: OICI 281730Z 2818/2924 10010KT 8000 FEW040

Observacions i pronòstics meteorològics de més de 4000 aeroports (METAR i TAF).

Les estacions disponibles són els punts grocs i vermells al mapa.

Posi el ratolí al punt desitjat per veure el nom de l'estació.

Feu clic per veure les observacions i els pronòstics meteorològics.

Per canviar el mapa: feu clic els botons verds amb una creu de color negre per apropar; al botó verd amb un guió per allunyar la imatge; o en les fletxes verdes per a mapes adjacents.


METAR-TAF: